Time;durP1;ratioP1;P1;durP2;ratioP2;P2;SDS_P1;SDS_P2;PMS_P1;PMS_P2;Temp;Humidity;BMP_temperature;BMP_pressure;BME280_temperature;BME280_humidity;BME280_pressure;Samples;Min_cycle;Max_cycle;Signal;HPM_P1;HPM_P2
2022/12/15 00:38:43;;;;;;;0.50;0.50;;;1.90;99.90;;;;;;6248410;23;20138;-88
2022/12/15 00:41:11;;;;;;;0.27;0.27;;;1.90;99.90;;;;;;6171994;23;20189;-89
2022/12/15 00:43:37;;;;;;;0.40;0.40;;;1.90;99.90;;;;;;6222015;23;20154;-89
2022/12/15 00:48:48;;;;;;;0.50;0.50;;;1.80;99.90;;;;;;6248124;23;20228;-89
2022/12/15 00:51:15;;;;;;;0.30;0.30;;;1.80;99.90;;;;;;6197111;23;20563;-89
2022/12/15 01:21:08;;;;;;;0.30;0.30;;;3.00;99.90;;;;;;6224800;23;20145;-89
2022/12/15 01:23:34;;;;;;;0.20;0.20;;;2.80;99.90;;;;;;6196810;23;20158;-89
2022/12/15 01:26:01;;;;;;;0.30;0.30;;;2.80;99.90;;;;;;6221515;23;20514;-89
2022/12/15 01:28:27;;;;;;;0.30;0.30;;;2.80;99.90;;;;;;6221150;23;20149;-89
2022/12/15 01:30:53;;;;;;;0.30;0.30;;;2.80;99.90;;;;;;6196031;23;20248;-89
2022/12/15 01:33:20;;;;;;;0.30;0.30;;;2.70;99.90;;;;;;6221631;23;20461;-89
2022/12/15 01:36:03;;;;;;;0.30;0.30;;;2.70;99.90;;;;;;6221348;23;20156;-90
2022/12/15 01:38:28;;;;;;;0.30;0.30;;;2.70;99.90;;;;;;6221475;23;20146;-89
2022/12/15 01:41:00;;;;;;;0.23;0.23;;;2.70;99.90;;;;;;6196437;23;20590;-89
2022/12/15 01:43:31;;;;;;;4.37;1.80;;;2.70;99.90;;;;;;6221366;23;20145;-89
2022/12/15 01:46:01;;;;;;;0.30;0.30;;;2.80;99.90;;;;;;6221410;23;20225;-89
2022/12/15 01:48:34;;;;;;;0.30;0.30;;;2.90;99.90;;;;;;6221279;23;20157;-89
2022/12/15 01:51:04;;;;;;;0.20;0.20;;;3.00;99.90;;;;;;6221062;23;20148;-89
2022/12/15 01:53:39;;;;;;;2.03;2.00;;;2.90;99.90;;;;;;6220881;23;20200;-89
2022/12/15 01:56:07;;;;;;;0.30;0.30;;;2.90;99.90;;;;;;6221080;23;20152;-89
2022/12/15 01:58:36;;;;;;;0.40;0.40;;;2.90;99.90;;;;;;6196064;23;20197;-89
2022/12/15 02:01:02;;;;;;;1.50;1.40;;;2.80;99.90;;;;;;6196170;23;20248;-89
2022/12/15 02:03:30;;;;;;;3.20;0.60;;;2.70;99.90;;;;;;6196139;23;20207;-89
2022/12/15 02:05:59;;;;;;;0.20;0.20;;;2.70;99.90;;;;;;6221031;23;20231;-89
2022/12/15 02:08:25;;;;;;;0.30;0.30;;;2.60;99.90;;;;;;6220940;23;20583;-89
2022/12/15 02:11:06;;;;;;;0.30;0.30;;;2.50;99.90;;;;;;6195666;23;20292;-88
2022/12/15 02:13:54;;;;;;;0.30;0.30;;;2.50;99.90;;;;;;6221012;23;20142;-89
2022/12/15 02:16:57;;;;;;;0.30;0.30;;;2.40;99.90;;;;;;6221193;23;20304;-89
2022/12/15 02:20:00;;;;;;;0.30;0.30;;;2.30;99.90;;;;;;6220749;23;20164;-88
2022/12/15 02:22:54;;;;;;;0.30;0.30;;;2.10;99.90;;;;;;6220613;23;20210;-89
2022/12/15 02:25:45;;;;;;;0.30;0.30;;;2.10;99.90;;;;;;6220892;23;20216;-89
2022/12/15 02:28:23;;;;;;;0.30;0.30;;;2.10;99.90;;;;;;6220765;23;20229;-89
2022/12/15 02:34:04;;;;;;;7.10;0.77;;;2.20;99.90;;;;;;6247122;23;20137;-89
2022/12/15 02:36:38;;;;;;;0.40;0.40;;;2.10;99.90;;;;;;6220991;23;20145;-89
2022/12/15 02:39:05;;;;;;;0.57;0.57;;;2.10;99.90;;;;;;6220828;23;20589;-89
2022/12/15 02:41:43;;;;;;;0.30;0.30;;;2.00;99.90;;;;;;6195937;23;20165;-89
2022/12/15 02:44:11;;;;;;;0.20;0.20;;;1.90;99.90;;;;;;6220745;23;20157;-88
2022/12/15 02:47:00;;;;;;;0.30;0.30;;;2.00;99.90;;;;;;6220874;23;20181;-89
2022/12/15 02:49:41;;;;;;;0.30;0.30;;;1.90;99.90;;;;;;6221024;23;20146;-89
2022/12/15 02:52:10;;;;;;;0.40;0.40;;;1.80;99.90;;;;;;6220456;23;20153;-89
2022/12/15 02:54:57;;;;;;;0.30;0.30;;;1.80;99.90;;;;;;6220556;23;20157;-89
2022/12/15 02:57:31;;;;;;;0.30;0.30;;;1.80;99.90;;;;;;6246923;23;20150;-88
2022/12/15 03:00:03;;;;;;;0.30;0.30;;;1.80;99.90;;;;;;6220820;23;20145;-89
2022/12/15 03:02:33;;;;;;;0.40;0.40;;;1.80;99.90;;;;;;6220719;23;20146;-89
2022/12/15 03:05:00;;;;;;;0.30;0.30;;;1.80;99.90;;;;;;6220691;23;20161;-89
2022/12/15 03:07:26;;;;;;;0.70;0.70;;;1.90;99.90;;;;;;6195839;23;20219;-88
2022/12/15 03:09:55;;;;;;;0.27;0.27;;;1.90;99.90;;;;;;6220147;23;20193;-88
2022/12/15 03:12:21;;;;;;;1.33;0.60;;;1.90;99.90;;;;;;6220822;23;20161;-88
2022/12/15 03:14:47;;;;;;;0.30;0.30;;;2.00;99.90;;;;;;6195789;23;20153;-89
2022/12/15 03:17:12;;;;;;;0.30;0.30;;;2.00;99.90;;;;;;6220671;23;20172;-89
2022/12/15 03:19:38;;;;;;;0.20;0.20;;;2.00;99.90;;;;;;6195840;23;20157;-89
2022/12/15 03:22:04;;;;;;;0.30;0.30;;;2.00;99.90;;;;;;6195732;23;20169;-89
2022/12/15 03:24:33;;;;;;;0.50;0.50;;;1.90;99.90;;;;;;6170675;23;20219;-89
2022/12/15 03:26:58;;;;;;;0.20;0.20;;;1.80;99.90;;;;;;6196165;23;20204;-89
2022/12/15 03:29:24;;;;;;;0.40;0.40;;;1.80;99.90;;;;;;6195502;23;20157;-89
2022/12/15 03:31:50;;;;;;;0.30;0.30;;;1.70;99.90;;;;;;6195342;23;20496;-88
2022/12/15 03:34:16;;;;;;;0.40;0.40;;;1.70;99.90;;;;;;6170644;23;20489;-89
2022/12/15 03:36:42;;;;;;;0.20;0.20;;;1.70;99.90;;;;;;6246845;23;20157;-89
2022/12/15 03:39:07;;;;;;;0.30;0.30;;;1.70;99.90;;;;;;6195569;23;20172;-88
2022/12/15 03:41:33;;;;;;;0.30;0.30;;;1.70;99.90;;;;;;6170160;23;20157;-89
2022/12/15 03:44:00;;;;;;;0.73;0.73;;;1.70;99.90;;;;;;6196862;23;20161;-89
2022/12/15 03:46:26;;;;;;;0.20;0.20;;;1.80;99.90;;;;;;6222354;23;20181;-89
2022/12/15 03:48:52;;;;;;;0.63;0.63;;;1.90;99.90;;;;;;6197428;23;20158;-89
2022/12/15 03:51:19;;;;;;;0.20;0.20;;;1.80;99.90;;;;;;6222568;23;20295;-89
2022/12/15 03:53:46;;;;;;;0.20;0.20;;;1.80;99.90;;;;;;6197135;23;20158;-89
2022/12/15 03:56:13;;;;;;;0.30;0.30;;;1.80;99.90;;;;;;6173509;23;20244;-89
2022/12/15 03:58:39;;;;;;;0.30;0.30;;;1.80;99.90;;;;;;6197183;23;20242;-89
2022/12/15 04:01:21;;;;;;;0.20;0.20;;;1.90;99.90;;;;;;6196965;23;20196;-89
2022/12/15 04:03:47;;;;;;;1.50;0.97;;;1.80;99.90;;;;;;6222434;23;20152;-89
2022/12/15 04:06:13;;;;;;;0.27;0.27;;;1.80;99.90;;;;;;6221905;23;20173;-89
2022/12/15 04:08:38;;;;;;;0.73;0.73;;;1.70;99.90;;;;;;6197285;23;20172;-89
2022/12/15 04:11:04;;;;;;;0.30;0.30;;;1.70;99.90;;;;;;6167155;23;20220;-89
2022/12/15 04:13:30;;;;;;;0.60;0.60;;;1.70;99.90;;;;;;6192011;23;20208;-89
2022/12/15 04:15:56;;;;;;;2.63;0.77;;;1.70;99.90;;;;;;6167352;23;20170;-88
2022/12/15 04:18:21;;;;;;;0.47;0.47;;;1.60;99.90;;;;;;6191808;23;20190;-89
2022/12/15 04:20:47;;;;;;;0.20;0.20;;;1.60;99.90;;;;;;6191860;23;20158;-89
2022/12/15 04:23:13;;;;;;;0.40;0.40;;;1.60;99.90;;;;;;6192213;23;20158;-89
2022/12/15 05:31:50;;;;;;;0.30;0.30;;;1.00;99.90;;;;;;6195220;23;20147;-87
2022/12/15 05:34:20;;;;;;;1.07;0.93;;;1.00;99.90;;;;;;6192721;23;20894;-87
2022/12/15 05:36:46;;;;;;;0.30;0.30;;;1.00;99.90;;;;;;6192102;23;20590;-87
2022/12/15 05:39:12;;;;;;;0.40;0.40;;;0.90;99.90;;;;;;6191179;23;20158;-90
2022/12/15 05:41:38;;;;;;;0.50;0.50;;;0.90;99.90;;;;;;6191209;23;20212;-90
2022/12/15 05:44:04;;;;;;;0.50;0.50;;;1.00;99.90;;;;;;6167224;23;20486;-91
2022/12/15 05:46:29;;;;;;;0.20;0.20;;;1.00;99.90;;;;;;6166380;23;20182;-90
2022/12/15 05:48:55;;;;;;;0.37;0.37;;;1.00;99.90;;;;;;6166844;23;20166;-91
2022/12/15 05:51:21;;;;;;;0.93;0.93;;;1.10;99.90;;;;;;6166388;23;20165;-90
2022/12/15 05:53:47;;;;;;;0.97;0.97;;;1.10;99.90;;;;;;6191425;23;20155;-90
2022/12/15 05:56:14;;;;;;;0.20;0.20;;;1.10;99.90;;;;;;6166670;23;20185;-90
2022/12/15 05:58:41;;;;;;;1.50;0.93;;;1.20;99.90;;;;;;6166921;23;20483;-90
2022/12/15 06:01:13;;;;;;;0.57;0.57;;;1.20;99.90;;;;;;6216456;23;20220;-90
2022/12/15 06:03:39;;;;;;;0.30;0.30;;;1.10;99.90;;;;;;6216362;23;20143;-90
2022/12/15 06:06:07;;;;;;;0.90;0.90;;;1.10;99.90;;;;;;6166110;23;20158;-90
2022/12/15 06:08:35;;;;;;;0.20;0.20;;;1.10;99.90;;;;;;6191742;23;20166;-89
2022/12/15 06:11:01;;;;;;;0.30;0.30;;;1.20;99.90;;;;;;6215542;23;20197;-90
2022/12/15 06:13:30;;;;;;;0.40;0.40;;;1.30;99.90;;;;;;6190705;23;20535;-90
2022/12/15 06:16:16;;;;;;;0.30;0.30;;;1.30;99.90;;;;;;6191222;23;20596;-91
2022/12/15 06:18:46;;;;;;;0.20;0.20;;;1.30;99.90;;;;;;6216091;23;20177;-90
2022/12/15 06:21:16;;;;;;;0.30;0.30;;;1.30;99.90;;;;;;6216125;23;20467;-90
2022/12/15 06:23:42;;;;;;;0.60;0.60;;;1.30;99.90;;;;;;6215884;23;20471;-89
2022/12/15 06:26:16;;;;;;;0.50;0.50;;;1.30;99.90;;;;;;6191120;23;20162;-90
2022/12/15 06:28:42;;;;;;;0.20;0.20;;;1.30;99.90;;;;;;6220707;23;20185;-90
2022/12/15 06:31:10;;;;;;;0.67;0.67;;;1.40;99.90;;;;;;6168938;23;20158;-90
2022/12/15 06:33:37;;;;;;;1.00;1.00;;;1.30;99.90;;;;;;6191707;23;20158;-92
2022/12/15 06:36:05;;;;;;;1.43;1.40;;;1.30;99.90;;;;;;6218689;23;20177;-92
2022/12/15 06:38:31;;;;;;;0.40;0.40;;;1.40;99.90;;;;;;6192946;23;20534;-93
2022/12/15 06:40:59;;;;;;;0.73;0.73;;;1.40;99.90;;;;;;6168184;23;20185;-91
2022/12/15 06:43:26;;;;;;;1.13;1.13;;;1.40;99.90;;;;;;6166430;23;20154;-91
2022/12/15 06:45:52;;;;;;;0.60;0.60;;;1.50;99.90;;;;;;6191470;23;20485;-92
2022/12/15 06:48:19;;;;;;;0.53;0.53;;;1.50;99.90;;;;;;6190953;23;20189;-93
2022/12/15 06:50:45;;;;;;;0.40;0.40;;;1.50;99.90;;;;;;6192991;23;20599;-93
2022/12/15 06:53:12;;;;;;;0.97;0.97;;;1.40;99.90;;;;;;6193392;23;20189;-93
2022/12/15 06:55:39;;;;;;;0.30;0.30;;;1.50;99.90;;;;;;6170519;23;20529;-93
2022/12/15 06:58:05;;;;;;;11.07;2.47;;;1.60;99.90;;;;;;6218652;23;20154;-93
2022/12/15 07:00:35;;;;;;;0.50;0.50;;;1.60;99.90;;;;;;6169397;23;20166;-93
2022/12/15 07:03:06;;;;;;;4.43;0.83;;;1.70;99.90;;;;;;6193458;23;20162;-93
2022/12/15 07:05:32;;;;;;;0.30;0.30;;;1.70;99.90;;;;;;6216331;23;20458;-90
2022/12/15 07:07:58;;;;;;;1.70;1.60;;;1.60;99.90;;;;;;6190501;23;20281;-89
2022/12/15 07:10:24;;;;;;;1.40;1.40;;;1.70;99.90;;;;;;6164812;23;20568;-89
2022/12/15 07:12:50;;;;;;;1.37;1.27;;;1.70;99.90;;;;;;6165175;23;20249;-89
2022/12/15 07:15:16;;;;;;;1.60;1.50;;;1.70;99.90;;;;;;6166074;23;20158;-92
2022/12/15 07:17:42;;;;;;;1.30;1.30;;;1.70;99.90;;;;;;6190111;23;20300;-87
2022/12/15 07:20:08;;;;;;;3.03;1.77;;;1.70;99.90;;;;;;6167041;23;20591;-89
2022/12/15 07:22:34;;;;;;;1.23;1.23;;;1.70;99.90;;;;;;6192260;23;20166;-88
2022/12/15 07:24:59;;;;;;;2.17;1.20;;;1.80;99.90;;;;;;6192204;23;20659;-89
2022/12/15 07:27:25;;;;;;;0.67;0.67;;;1.80;99.90;;;;;;6192073;23;20252;-89
2022/12/15 07:29:51;;;;;;;0.97;0.90;;;1.90;99.90;;;;;;6192323;23;20240;-89
2022/12/15 07:32:17;;;;;;;2.13;1.50;;;1.90;99.90;;;;;;6192650;23;20161;-89
2022/12/15 07:34:43;;;;;;;11.93;1.53;;;2.00;99.90;;;;;;6217616;23;20169;-89
2022/12/15 07:37:09;;;;;;;0.30;0.30;;;2.00;99.90;;;;;;6192424;23;20158;-89
2022/12/15 07:39:35;;;;;;;0.40;0.40;;;2.00;99.90;;;;;;6167348;23;20174;-88
2022/12/15 07:42:00;;;;;;;0.33;0.33;;;2.00;99.90;;;;;;6167700;23;20602;-89
2022/12/15 07:44:27;;;;;;;0.30;0.30;;;2.00;99.90;;;;;;6167482;23;20158;-89
2022/12/15 07:46:54;;;;;;;0.57;0.57;;;2.00;99.90;;;;;;6192458;23;20220;-89
2022/12/15 07:49:20;;;;;;;0.67;0.67;;;2.00;99.90;;;;;;6167367;23;20158;-89
2022/12/15 07:51:46;;;;;;;0.50;0.50;;;2.20;99.90;;;;;;6192000;23;20155;-89
2022/12/15 07:54:12;;;;;;;0.30;0.30;;;2.30;99.90;;;;;;6191812;23;20154;-89
2022/12/15 07:56:38;;;;;;;0.30;0.30;;;2.40;99.90;;;;;;6167621;23;20166;-90
2022/12/15 07:59:05;;;;;;;0.60;0.60;;;2.50;99.90;;;;;;6192560;23;20178;-91
2022/12/15 08:01:31;;;;;;;0.20;0.20;;;2.70;99.90;;;;;;6193067;23;20595;-89
2022/12/15 08:03:57;;;;;;;4.67;1.83;;;2.80;99.90;;;;;;6167644;23;20182;-90
2022/12/15 08:06:23;;;;;;;0.80;0.80;;;2.80;99.90;;;;;;6192321;23;20619;-90
2022/12/15 08:08:50;;;;;;;0.50;0.50;;;2.80;99.90;;;;;;6192397;23;20162;-90
2022/12/15 08:11:16;;;;;;;0.40;0.40;;;2.80;99.90;;;;;;6191676;23;20272;-91
2022/12/15 08:13:43;;;;;;;0.40;0.40;;;2.90;99.90;;;;;;6192272;23;20208;-90
2022/12/15 08:16:10;;;;;;;0.30;0.30;;;2.90;99.90;;;;;;6217326;23;20583;-90
2022/12/15 08:18:35;;;;;;;1.43;0.60;;;2.90;99.90;;;;;;6191820;23;20159;-89
2022/12/15 08:21:03;;;;;;;0.20;0.20;;;3.00;99.90;;;;;;6191997;23;20649;-90
2022/12/15 08:23:29;;;;;;;0.20;0.20;;;2.90;99.90;;;;;;6192108;23;20165;-90
2022/12/15 08:26:04;;;;;;;0.73;0.73;;;2.90;99.90;;;;;;6192391;23;20462;-90
2022/12/15 08:28:31;;;;;;;0.50;0.50;;;2.90;99.90;;;;;;6216808;23;20150;-90
2022/12/15 08:31:05;;;;;;;0.40;0.40;;;3.00;99.90;;;;;;6216764;23;20154;-90
2022/12/15 08:33:31;;;;;;;0.97;0.97;;;3.10;99.90;;;;;;6217550;23;20154;-90
2022/12/15 08:36:01;;;;;;;3.50;1.27;;;3.20;99.90;;;;;;6191997;23;20173;-90
2022/12/15 08:38:29;;;;;;;0.40;0.40;;;3.30;99.90;;;;;;6191698;23;20587;-89
2022/12/15 08:40:55;;;;;;;0.30;0.30;;;3.40;99.90;;;;;;6217267;23;20178;-91
2022/12/15 08:43:22;;;;;;;0.43;0.43;;;3.40;99.90;;;;;;6192135;23;20185;-90
2022/12/15 08:45:48;;;;;;;0.67;0.67;;;3.50;99.90;;;;;;6217003;23;20603;-91
2022/12/15 08:48:14;;;;;;;1.20;0.50;;;3.50;99.90;;;;;;6216766;23;20178;-90
2022/12/15 08:50:44;;;;;;;0.70;0.70;;;3.50;99.90;;;;;;6167216;23;20163;-91
2022/12/15 08:53:10;;;;;;;3.10;1.70;;;3.50;99.90;;;;;;6166968;23;20158;-91
2022/12/15 08:55:37;;;;;;;0.67;0.67;;;3.60;99.90;;;;;;6192216;23;20177;-90
2022/12/15 08:58:03;;;;;;;1.27;1.17;;;3.70;99.90;;;;;;6192167;23;20158;-90
2022/12/15 09:00:40;;;;;;;0.67;0.67;;;3.90;99.90;;;;;;6167843;23;20158;-90
2022/12/15 09:03:22;;;;;;;0.40;0.40;;;4.00;99.90;;;;;;6193584;23;20150;-90
2022/12/15 09:05:49;;;;;;;0.83;0.83;;;4.00;99.90;;;;;;6211334;23;20184;-88
2022/12/15 09:08:15;;;;;;;0.30;0.30;;;4.00;99.90;;;;;;6217826;23;20174;-92
2022/12/15 09:10:46;;;;;;;0.60;0.60;;;4.00;99.90;;;;;;6216239;23;20198;-91
2022/12/15 09:13:23;;;;;;;0.50;0.50;;;4.00;99.90;;;;;;6192192;23;20146;-90
2022/12/15 09:16:07;;;;;;;2.20;0.87;;;4.00;99.90;;;;;;6216451;23;20564;-91
2022/12/15 09:18:33;;;;;;;0.30;0.30;;;3.90;99.90;;;;;;6211995;23;20154;-90
2022/12/15 09:21:05;;;;;;;1.30;1.27;;;3.90;99.90;;;;;;6216585;23;20165;-90
2022/12/15 09:23:35;;;;;;;1.70;0.93;;;3.90;99.90;;;;;;6216873;23;20602;-91
2022/12/15 09:26:23;;;;;;;0.27;0.27;;;3.90;99.90;;;;;;6216611;23;20150;-91
2022/12/15 09:29:13;;;;;;;0.67;0.67;;;4.00;99.90;;;;;;6216559;23;20233;-91
2022/12/15 09:31:39;;;;;;;0.50;0.50;;;4.10;99.90;;;;;;6191012;23;20587;-91
2022/12/15 09:34:05;;;;;;;0.20;0.20;;;4.20;99.90;;;;;;6216608;23;20157;-91
2022/12/15 09:36:34;;;;;;;0.30;0.30;;;4.40;99.90;;;;;;6216338;23;20162;-90
2022/12/15 09:39:03;;;;;;;0.50;0.50;;;4.60;99.90;;;;;;6190857;23;20162;-90
2022/12/15 09:41:32;;;;;;;0.40;0.40;;;4.70;99.90;;;;;;6191242;23;20288;-90
2022/12/15 09:44:03;;;;;;;2.20;2.10;;;4.80;99.90;;;;;;6215782;23;20185;-91
2022/12/15 09:46:44;;;;;;;6.27;0.70;;;4.90;99.90;;;;;;6216458;23;20260;-90
2022/12/15 09:49:29;;;;;;;1.90;1.07;;;4.80;99.90;;;;;;6216522;23;20261;-90
2022/12/15 09:52:16;;;;;;;0.30;0.30;;;4.70;99.90;;;;;;6216130;23;20281;-90
2022/12/15 09:54:43;;;;;;;0.43;0.43;;;4.60;99.90;;;;;;6216335;23;20146;-90
2022/12/15 09:57:34;;;;;;;0.53;0.53;;;4.50;99.90;;;;;;6190886;23;20647;-91
2022/12/15 10:00:24;;;;;;;0.50;0.50;;;4.50;99.90;;;;;;6215863;23;20150;-91
2022/12/15 10:03:17;;;;;;;1.27;1.17;;;4.50;99.90;;;;;;6216030;23;20147;-91
2022/12/15 10:06:19;;;;;;;4.63;0.50;;;4.40;99.90;;;;;;6215745;23;20509;-90
2022/12/15 10:08:50;;;;;;;0.80;0.80;;;4.40;99.90;;;;;;6214627;23;20502;-90
2022/12/15 10:11:25;;;;;;;1.07;1.07;;;4.40;99.90;;;;;;6215279;23;20194;-90
2022/12/15 10:13:56;;;;;;;1.07;1.07;;;4.40;99.90;;;;;;6215443;23;20551;-90
2022/12/15 10:16:35;;;;;;;8.50;2.70;;;4.30;99.90;;;;;;6216009;23;20146;-91
2022/12/15 10:19:18;;;;;;;7.73;1.63;;;4.30;99.90;;;;;;6215404;23;20154;-91
2022/12/15 10:21:44;;;;;;;0.93;0.60;;;4.40;99.90;;;;;;6216412;23;20470;-91
2022/12/15 10:24:18;;;;;;;0.40;0.40;;;4.40;99.90;;;;;;6216646;23;20158;-91
2022/12/15 10:26:52;;;;;;;1.90;1.33;;;4.30;99.90;;;;;;6190309;23;20232;-92
2022/12/15 10:29:39;;;;;;;0.60;0.60;;;4.30;99.90;;;;;;6215533;23;20147;-91
2022/12/15 10:32:17;;;;;;;1.00;1.00;;;4.30;99.90;;;;;;6216286;23;20479;-91
2022/12/15 10:34:54;;;;;;;1.53;1.53;;;4.30;99.90;;;;;;6215774;23;20138;-90
2022/12/15 10:37:20;;;;;;;0.50;0.50;;;4.30;99.90;;;;;;6189741;23;20169;-90
2022/12/15 10:39:50;;;;;;;1.13;1.13;;;4.40;99.90;;;;;;6215239;23;20181;-90
2022/12/15 10:42:28;;;;;;;0.80;0.80;;;4.50;99.90;;;;;;6215874;23;20154;-90
2022/12/15 10:44:56;;;;;;;0.90;0.90;;;4.50;99.90;;;;;;6215286;23;20142;-88
2022/12/15 10:47:27;;;;;;;0.93;0.93;;;4.60;99.90;;;;;;6215435;23;20173;-89
2022/12/15 10:49:54;;;;;;;7.13;1.00;;;4.70;99.90;;;;;;6215950;23;20142;-89
2022/12/15 10:52:20;;;;;;;0.70;0.70;;;4.80;99.90;;;;;;6165854;23;20217;-89
2022/12/15 10:54:49;;;;;;;0.70;0.70;;;4.80;99.90;;;;;;6215528;23;20156;-89
2022/12/15 10:57:30;;;;;;;0.70;0.70;;;5.00;99.90;;;;;;6216589;23;20185;-90
2022/12/15 11:00:27;;;;;;;0.77;0.77;;;5.00;99.90;;;;;;6216191;23;20452;-89
2022/12/15 11:02:53;;;;;;;0.50;0.50;;;4.90;99.90;;;;;;6206838;23;20158;-89
2022/12/15 11:05:19;;;;;;;1.13;0.70;;;4.80;99.90;;;;;;6215623;23;20164;-89
2022/12/15 11:07:49;;;;;;;0.23;0.23;;;4.80;99.90;;;;;;6190770;23;20265;-89
2022/12/15 11:13:21;;;;;;;8.13;1.00;;;4.80;99.90;;;;;;6186124;23;20162;-92
2022/12/15 11:15:52;;;;;;;0.43;0.40;;;4.90;99.90;;;;;;6216149;23;20252;-92
2022/12/15 11:18:44;;;;;;;0.40;0.40;;;4.90;99.90;;;;;;6191190;23;20161;-92
2022/12/15 11:21:20;;;;;;;2.33;0.97;;;5.00;99.90;;;;;;6215320;23;20245;-91
2022/12/15 11:24:07;;;;;;;0.83;0.83;;;5.00;99.90;;;;;;6216266;23;20142;-91
2022/12/15 11:26:36;;;;;;;0.30;0.30;;;5.00;99.90;;;;;;6215874;23;20542;-91
2022/12/15 11:29:20;;;;;;;2.37;2.23;;;5.10;99.90;;;;;;6215534;23;20207;-91
2022/12/15 11:31:46;;;;;;;0.30;0.30;;;5.10;99.90;;;;;;6216092;23;20225;-91
2022/12/15 11:34:18;;;;;;;0.70;0.70;;;5.30;99.90;;;;;;6165726;23;20165;-91
2022/12/15 11:37:16;;;;;;;0.20;0.20;;;5.40;99.90;;;;;;6215440;23;20143;-91
2022/12/15 11:40:22;;;;;;;0.57;0.57;;;5.60;99.90;;;;;;6166588;23;20264;-91
2022/12/15 11:42:51;;;;;;;1.27;1.27;;;5.60;99.90;;;;;;6215221;23;20146;-91
2022/12/15 11:45:35;;;;;;;9.20;1.27;;;5.80;99.90;;;;;;6215698;23;20162;-91
2022/12/15 11:48:03;;;;;;;0.50;0.50;;;5.80;99.90;;;;;;6215700;23;20178;-91
2022/12/15 11:50:37;;;;;;;0.83;0.83;;;5.90;99.90;;;;;;6215346;23;20154;-91
2022/12/15 11:53:14;;;;;;;1.13;1.13;;;5.90;99.90;;;;;;6215864;23;20501;-91
2022/12/15 11:56:06;;;;;;;5.60;0.90;;;5.80;99.90;;;;;;6215699;23;20142;-92
2022/12/15 11:58:55;;;;;;;15.07;1.07;;;5.90;99.90;;;;;;6215912;23;20523;-92
2022/12/15 12:01:41;;;;;;;0.57;0.50;;;6.00;99.90;;;;;;6215583;23;20153;-92
2022/12/15 12:04:22;;;;;;;0.20;0.20;;;6.10;99.90;;;;;;6215196;23;20161;-93
2022/12/15 12:06:59;;;;;;;0.93;0.93;;;6.00;99.90;;;;;;6217728;23;20257;-93
2022/12/15 12:09:31;;;;;;;0.63;0.63;;;5.90;99.90;;;;;;6217581;23;20162;-93
2022/12/15 12:12:15;;;;;;;4.80;0.83;;;5.80;99.90;;;;;;6222681;23;20204;-93
2022/12/15 12:15:03;;;;;;;0.60;0.60;;;5.80;99.90;;;;;;6222678;23;20225;-91
2022/12/15 12:18:02;;;;;;;0.67;0.67;;;5.80;99.90;;;;;;6222078;23;20187;-92
2022/12/15 12:20:53;;;;;;;1.63;1.43;;;5.90;99.90;;;;;;6222202;23;20138;-91
2022/12/15 12:23:30;;;;;;;0.37;0.37;;;5.80;99.90;;;;;;6222572;23;20146;-92
2022/12/15 12:26:06;;;;;;;0.20;0.20;;;5.70;99.90;;;;;;6222905;23;20559;-92
2022/12/15 12:28:57;;;;;;;0.33;0.33;;;5.70;99.90;;;;;;6222185;23;20244;-92
2022/12/15 12:31:42;;;;;;;2.73;1.80;;;5.70;99.90;;;;;;6221950;23;20161;-92
2022/12/15 12:34:25;;;;;;;0.70;0.70;;;5.70;99.90;;;;;;6222419;23;20174;-92
2022/12/15 12:36:53;;;;;;;0.57;0.57;;;5.70;99.90;;;;;;6221833;23;20173;-92
2022/12/15 12:39:23;;;;;;;0.47;0.47;;;5.70;99.90;;;;;;6196666;23;20157;-91
2022/12/15 12:42:21;;;;;;;0.40;0.40;;;5.70;99.90;;;;;;6221750;23;20166;-92
2022/12/15 12:44:47;;;;;;;0.40;0.40;;;6.30;99.90;;;;;;6200768;23;20142;-91
2022/12/15 12:47:23;;;;;;;0.40;0.40;;;7.50;99.90;;;;;;6172278;23;20192;-92
2022/12/15 12:49:57;;;;;;;0.57;0.57;;;7.40;99.90;;;;;;6198547;23;20150;-90
2022/12/15 12:52:26;;;;;;;0.93;0.80;;;7.70;99.90;;;;;;6221797;23;20151;-90
2022/12/15 12:55:12;;;;;;;8.03;1.20;;;7.30;99.90;;;;;;6221970;23;20235;-89
2022/12/15 12:57:42;;;;;;;0.30;0.30;;;7.10;99.90;;;;;;6221827;23;20560;-89
2022/12/15 13:00:18;;;;;;;0.40;0.40;;;6.70;99.90;;;;;;6221812;23;20157;-88
2022/12/15 13:03:05;;;;;;;0.83;0.83;;;6.50;99.90;;;;;;6222008;23;20145;-91
2022/12/15 13:05:36;;;;;;;0.93;0.70;;;6.20;99.90;;;;;;6221456;23;20155;-89
2022/12/15 13:08:04;;;;;;;2.13;1.90;;;6.00;99.90;;;;;;6196409;23;20166;-88
2022/12/15 13:10:48;;;;;;;0.97;0.97;;;5.90;99.90;;;;;;6221508;23;20227;-88
2022/12/15 13:13:17;;;;;;;0.60;0.60;;;5.80;99.90;;;;;;6196770;23;20146;-88
2022/12/15 13:15:45;;;;;;;12.43;1.50;;;5.80;99.90;;;;;;6221642;23;20582;-88
2022/12/15 13:18:14;;;;;;;1.50;1.40;;;5.70;99.90;;;;;;6221433;23;20181;-89
2022/12/15 13:20:40;;;;;;;0.30;0.30;;;5.60;99.90;;;;;;6221469;23;20157;-89
2022/12/15 13:23:35;;;;;;;0.97;0.97;;;5.50;99.90;;;;;;6221246;23;20150;-89
2022/12/15 13:26:00;;;;;;;1.27;1.27;;;5.20;99.90;;;;;;6216347;23;20260;-89
2022/12/15 13:28:35;;;;;;;0.50;0.40;;;5.10;99.90;;;;;;6221321;23;20601;-90
2022/12/15 13:31:19;;;;;;;0.30;0.30;;;5.10;99.90;;;;;;6221477;23;20621;-90
2022/12/15 13:33:48;;;;;;;0.20;0.20;;;5.10;99.90;;;;;;6221135;23;20187;-89
2022/12/15 13:36:35;;;;;;;0.93;0.93;;;5.10;99.90;;;;;;6221534;23;20154;-89
2022/12/15 13:39:11;;;;;;;0.30;0.30;;;5.10;99.90;;;;;;6221364;23;20484;-88
2022/12/15 13:41:40;;;;;;;0.40;0.40;;;5.00;99.90;;;;;;6221192;23;20161;-89
2022/12/15 13:44:22;;;;;;;1.33;1.00;;;5.00;99.90;;;;;;6221686;23;20620;-88
2022/12/15 13:46:51;;;;;;;3.50;1.07;;;4.90;99.90;;;;;;6221156;23;20233;-89
2022/12/15 13:49:54;;;;;;;0.50;0.50;;;4.90;99.90;;;;;;6221052;23;20240;-91
2022/12/15 13:52:22;;;;;;;0.40;0.40;;;4.80;99.90;;;;;;6197997;23;20646;-90
2022/12/15 13:55:35;;;;;;;0.60;0.60;;;4.70;99.90;;;;;;6220299;23;20213;-89
2022/12/15 13:58:15;;;;;;;0.93;0.93;;;4.60;99.90;;;;;;6215989;23;20659;-89
2022/12/15 14:00:57;;;;;;;0.50;0.40;;;4.50;99.90;;;;;;6221215;23;20145;-89
2022/12/15 14:03:23;;;;;;;0.93;0.80;;;4.40;99.90;;;;;;6221014;23;20149;-89
2022/12/15 14:05:54;;;;;;;2.50;2.23;;;4.30;99.90;;;;;;6171223;23;20237;-89
2022/12/15 14:08:23;;;;;;;1.13;1.13;;;4.30;99.90;;;;;;6220589;23;20173;-90
2022/12/15 14:10:54;;;;;;;0.80;0.73;;;4.20;99.90;;;;;;6195639;23;20209;-89
2022/12/15 14:13:20;;;;;;;3.00;0.63;;;4.20;99.90;;;;;;6220960;23;20531;-88
2022/12/15 14:15:54;;;;;;;0.97;0.97;;;4.20;99.90;;;;;;6220632;23;20161;-90
2022/12/15 14:18:27;;;;;;;2.57;1.43;;;4.20;99.90;;;;;;6220412;23;20165;-89
2022/12/15 14:20:53;;;;;;;0.30;0.30;;;4.20;99.90;;;;;;6220813;23;20142;-89
2022/12/15 14:23:21;;;;;;;1.97;1.83;;;4.30;99.90;;;;;;6195555;23;20245;-89
2022/12/15 14:26:14;;;;;;;2.10;1.63;;;4.30;99.90;;;;;;6220213;23;20157;-89
2022/12/15 14:28:42;;;;;;;1.50;1.40;;;4.20;99.90;;;;;;6214109;23;20200;-90
2022/12/15 14:31:19;;;;;;;0.83;0.83;;;4.20;99.90;;;;;;6220732;23;20480;-90
2022/12/15 14:33:49;;;;;;;0.80;0.77;;;4.10;99.90;;;;;;6220862;23;20156;-90
2022/12/15 14:36:18;;;;;;;0.67;0.67;;;4.10;99.90;;;;;;6220667;23;20236;-89
2022/12/15 14:38:58;;;;;;;0.70;0.70;;;4.00;99.90;;;;;;6220616;23;20476;-90
2022/12/15 14:41:25;;;;;;;0.77;0.77;;;3.90;99.90;;;;;;6220788;23;20142;-89
2022/12/15 14:43:56;;;;;;;4.73;1.43;;;3.80;99.90;;;;;;6220855;23;20237;-89
2022/12/15 14:46:24;;;;;;;0.43;0.43;;;3.70;99.90;;;;;;6220571;23;20443;-90
2022/12/15 14:48:52;;;;;;;0.40;0.40;;;3.60;99.90;;;;;;6220350;23;20161;-88
2022/12/15 14:51:18;;;;;;;0.83;0.50;;;3.60;99.90;;;;;;6220187;23;20153;-90
2022/12/15 14:53:48;;;;;;;1.10;1.10;;;3.50;99.90;;;;;;6195856;23;20161;-89
2022/12/15 14:56:20;;;;;;;0.70;0.70;;;3.40;99.90;;;;;;6220504;23;20149;-90
2022/12/15 14:58:58;;;;;;;0.50;0.50;;;3.40;99.90;;;;;;6220746;23;20162;-89
2022/12/15 15:01:33;;;;;;;1.00;1.00;;;3.40;99.90;;;;;;6220437;23;20157;-89
2022/12/15 15:04:05;;;;;;;0.77;0.77;;;3.40;99.90;;;;;;6220166;23;20654;-90
2022/12/15 15:06:39;;;;;;;0.93;0.93;;;3.50;99.90;;;;;;6220174;23;20153;-90
2022/12/15 15:09:24;;;;;;;1.03;0.70;;;3.50;99.90;;;;;;6195567;23;20146;-89
2022/12/15 15:12:11;;;;;;;0.37;0.37;;;3.50;99.90;;;;;;6220174;23;20696;-91
2022/12/15 15:14:57;;;;;;;0.40;0.40;;;3.50;99.90;;;;;;6221075;23;20192;-91
2022/12/15 15:17:33;;;;;;;2.20;1.27;;;3.50;99.90;;;;;;6220556;23;20235;-91
2022/12/15 15:20:06;;;;;;;0.67;0.63;;;3.40;99.90;;;;;;6220569;23;20137;-89
2022/12/15 15:22:44;;;;;;;0.50;0.50;;;3.30;99.90;;;;;;6220126;23;20141;-89
2022/12/15 15:25:31;;;;;;;1.03;1.03;;;3.10;99.90;;;;;;6219805;23;20149;-90
2022/12/15 15:28:16;;;;;;;1.50;1.50;;;3.00;99.90;;;;;;6219948;23;20267;-90
2022/12/15 15:30:50;;;;;;;1.17;0.97;;;2.90;99.90;;;;;;6220595;23;20530;-89
2022/12/15 15:33:16;;;;;;;0.93;0.90;;;2.90;99.90;;;;;;6196349;23;20152;-91
2022/12/15 15:35:45;;;;;;;1.27;1.27;;;2.90;99.90;;;;;;6170665;23;20184;-90
2022/12/15 15:38:25;;;;;;;2.47;1.13;;;2.80;99.90;;;;;;6220354;23;20536;-90
2022/12/15 15:40:53;;;;;;;1.00;0.93;;;2.80;99.90;;;;;;6222493;23;20148;-90
2022/12/15 15:43:19;;;;;;;2.13;1.67;;;2.70;99.90;;;;;;6222128;23;20157;-90
2022/12/15 15:45:47;;;;;;;1.23;1.13;;;2.70;99.90;;;;;;6197489;23;20207;-90